Have a Safe July 4th! 

Flight Track Log - Related Links

Times and Time Zones

All times are in EST time to prevent confusion due to time zone crossing. See the UCA3598 flight status page for this flight to view local times or setup timezone preferences in your user account.

Time Position Orientation Groundspeed Altitude Reporting Facility
EST Latitude Longitude Course Direction KTS MPH feet Rate Location/Type
Sat 10:14:27 PM 38.9833 -77.5167 North 175 201 2,200  Level Potomac TRACON
Sat 10:15:15 PM 39.0167 -77.5500 322° Northwest 176 203 3,300 1,344 Climbing Potomac TRACON
Sat 10:17:30 PM 39.1203 -77.5581 357° North 197 227 6,300 1,262 Climbing Washington Center
Sat 10:18:30 PM 39.1747 -77.5461 10° North 190 219 7,400 1,230 Climbing Washington Center
Sat 10:19:00 PM 39.2656 -77.3221 North  Level Estimated
Sat 10:19:32 PM 39.2269 -77.5367 North 190 219 8,800  Level Washington Center
Sat 10:20:00 PM 39.3292 -77.2943 North  Level Estimated
Sat 10:20:32 PM 39.2836 -77.5250 North 195 224 9,900  Level Washington Center
Sat 10:21:30 PM 39.3419 -77.5158 North 200 230 10,900 1,138 Climbing Washington Center
Sat 10:23:47 PM 39.4758 -77.4903 North 216 249 13,600 1,138 Climbing New York Center
Sat 10:24:45 PM 39.5369 -77.4797 North 216 249 14,600 1,077 Climbing New York Center
Sat 10:25:44 PM 39.5983 -77.4614 13° North 222 255 15,700 706 Climbing New York Center
Sat 10:26:44 PM 39.6572 -77.4536 North 227 261 16,000 148 Climbing New York Center
Sat 10:27:46 PM 39.7386 -77.4531 360° North 253 291 16,000  Level New York Center
Sat 10:28:46 PM 39.8078 -77.4489 North 266 306 16,000 203 Level New York Center
Sat 10:29:44 PM 39.8883 -77.4242 13° North 277 319 16,400 559 Climbing New York Center
Sat 10:30:44 PM 39.9531 -77.3842 25° Northeast 277 319 17,100 1,082 Climbing New York Center
Sat 10:31:46 PM 40.0219 -77.3447 24° Northeast 256 295 18,600 950 Climbing New York Center
Sat 10:32:44 PM 40.0825 -77.3097 24° Northeast 248 285 19,000 198 Climbing New York Center
Sat 10:33:47 PM 40.1581 -77.2625 26° Northeast 266 306 19,000  Level New York Center
Sat 10:34:46 PM 40.2314 -77.2175 25° Northeast 277 319 19,000  Level New York Center
Sat 10:35:45 PM 40.3067 -77.1728 24° Northeast 292 336 19,000  Level New York Center
Sat 10:36:44 PM 40.3800 -77.1306 24° Northeast 292 336 19,000  Level New York Center
Sat 10:37:44 PM 40.4553 -77.0856 24° Northeast 292 336 19,000  Level New York Center
Sat 10:38:44 PM 40.5286 -77.0406 25° Northeast 292 336 19,000  Level New York Center
Sat 10:39:47 PM 40.6039 -76.9953 25° Northeast 292 336 19,000  Level New York Center
Sat 10:40:44 PM 40.6772 -76.9472 26° Northeast 292 336 19,000  Level New York Center
Sat 10:41:46 PM 40.7547 -76.9022 24° Northeast 292 336 19,000 -150 Level New York Center
Sat 10:42:44 PM 40.8278 -76.8567 25° Northeast 292 336 18,700 -600 Descending New York Center
Sat 10:43:46 PM 40.9033 -76.8083 26° Northeast 287 330 17,800 -800 Descending New York Center
Sat 10:44:44 PM 40.9764 -76.7628 25° Northeast 287 330 17,100 -756 Descending New York Center
Sat 10:45:45 PM 41.0494 -76.7169 25° Northeast 287 330 16,300 -793 Descending New York Center
Sat 10:46:45 PM 41.1206 -76.6736 25° Northeast 287 330 15,500 -807 Descending New York Center
Sat 10:47:44 PM 41.1936 -76.6275 25° Northeast 287 330 14,700 -807 Descending New York Center
Sat 10:48:44 PM 41.2644 -76.5839 25° Northeast 287 330 13,900 -793 Descending New York Center
Sat 10:49:45 PM 41.3375 -76.5378 25° Northeast 287 330 13,100 -750 Descending New York Center
Sat 10:50:44 PM 41.4022 -76.4961 26° Northeast 287 330 12,400 -756 Descending New York Center
Sat 10:51:44 PM 41.4731 -76.4525 25° Northeast 287 330 11,600 -893 Descending New York Center
Sat 10:52:45 PM 41.5461 -76.4058 26° Northeast 282 325 10,600 -976 Descending New York Center
Sat 10:53:47 PM 41.6147 -76.3617 26° Northeast 271 312 9,600 -807 Descending New York Center
Sat 10:54:44 PM 41.6706 -76.3247 26° Northeast 266 306 9,000 -407 Descending New York Center
Sat 10:55:45 PM 41.7328 -76.2856 25° Northeast 254 292 8,800 -800 Descending New York Center
Sat 10:56:44 PM 41.8036 -76.2386 26° Northeast 249 287 7,400 -1,412 Descending New York Center
Sat 10:57:44 PM 41.8639 -76.1989 26° Northeast 249 287 6,000 -1,450 Descending New York Center
Sat 10:58:44 PM 41.9258 -76.1622 24° Northeast 244 281 4,500 -1,000 Descending New York Center
Sat 10:59:44 PM 41.9794 -76.1275 26° Northeast 244 281 4,000 -250 Descending New York Center
Sat 11:00:44 PM 42.0439 -76.0881 24° Northeast 249 287 4,000 -397 Level New York Center
Sat 11:01:45 PM 42.1081 -76.0483 25° Northeast 249 287 3,200 -393 Descending New York Center
Sat 11:02:46 PM 42.1650 -76.0306 13° North 228 262 3,200  Level New York Center
Sat 11:03:45 PM 42.2097 -76.0539 339° North 190 219 3,200 -202 Level New York Center
Sat 11:04:45 PM 42.2492 -76.0542 360° North 163 188 2,800 -454 Descending New York Center
Sat 11:05:44 PM 42.2431 -76.0061 100° East 108 124 2,300 -298 Descending New York Center
Sat 11:06:46 PM 42.2486 -75.9756 76° East 72 83 2,200 -97 Descending New York Center
Sat 11:08:00 PM 42.2084 -75.9796 North  Level Estimated
Sat 11:15:00 PM 42.2084 -75.9796 North  Level Estimated
Sat 11:16:00 PM 42.2084 -75.9796 North  Level Estimated
Sat 11:17:00 PM 42.2084 -75.9796 North  Level Estimated

Login

Don't have an account? Register now (free) for customized features, flight alerts, and more!